createdAt,value
2022-10-04T00:03:11.698Z,100426.33
2022-10-04T00:12:45.455Z,100431.98
2022-10-04T00:22:19.244Z,100433.55
2022-10-04T00:31:53.196Z,100441.70
2022-10-04T00:41:31.237Z,100434.06
2022-10-04T00:51:01.325Z,100416.50
2022-10-04T01:00:36.766Z,100415.66
2022-10-04T01:10:08.825Z,100410.75
2022-10-04T01:19:44.356Z,100412.90
2022-10-04T01:29:16.367Z,100406.00
2022-10-04T01:38:50.401Z,100391.44
2022-10-04T01:48:26.017Z,100382.59
2022-10-04T01:57:58.176Z,100382.55
2022-10-04T02:07:32.210Z,100353.15
2022-10-04T02:17:07.227Z,100354.05
2022-10-04T02:26:39.177Z,100338.42
2022-10-04T02:36:14.434Z,100339.03
2022-10-04T02:45:47.603Z,100349.36
2022-10-04T02:55:19.553Z,100342.95
2022-10-04T03:04:53.401Z,100315.84
2022-10-04T03:14:29.274Z,100338.97
2022-10-04T03:24:01.185Z,100346.66
2022-10-04T03:33:35.186Z,100337.69
2022-10-04T03:43:08.948Z,100329.84
2022-10-04T03:52:42.973Z,100328.80
2022-10-04T04:02:16.530Z,100338.67
2022-10-04T04:11:50.613Z,100321.56
2022-10-04T04:21:24.158Z,100312.69
2022-10-04T04:30:59.755Z,100313.89
2022-10-04T04:40:31.551Z,100310.89
2022-10-04T04:50:05.382Z,100305.63
2022-10-04T04:59:39.302Z,100305.48
2022-10-04T05:09:14.847Z,100290.22
2022-10-04T05:18:52.440Z,100293.18
2022-10-04T05:28:22.923Z,100298.88
2022-10-04T05:37:54.900Z,100319.70
2022-10-04T05:47:27.642Z,100320.11
2022-10-04T05:57:03.225Z,100315.75
2022-10-04T06:06:36.561Z,100314.58
2022-10-04T06:16:08.453Z,100318.56
2022-10-04T06:25:42.934Z,100330.88
2022-10-04T06:35:17.100Z,100327.96
2022-10-04T06:44:51.296Z,100337.90
2022-10-04T06:54:25.593Z,100341.55
2022-10-04T07:03:59.349Z,100344.25
2022-10-04T07:13:33.432Z,100335.23
2022-10-04T07:23:07.983Z,100338.03
2022-10-04T07:32:41.228Z,100341.30
2022-10-04T07:42:15.488Z,100320.08
2022-10-04T07:51:49.452Z,100326.13
2022-10-04T08:01:23.599Z,100330.16
2022-10-04T08:02:30.261Z,100329.80
2022-10-04T08:12:00.053Z,100327.85
2022-10-04T08:13:04.098Z,100323.70
2022-10-04T08:22:35.740Z,100333.55
2022-10-04T08:23:38.244Z,100333.12
2022-10-04T08:24:42.298Z,100332.09
2022-10-04T08:34:13.354Z,100327.17
2022-10-04T08:35:17.477Z,100326.58
2022-10-04T08:36:21.401Z,100330.30
2022-10-04T08:37:23.715Z,100332.80
2022-10-04T08:38:27.732Z,100332.13
2022-10-04T08:39:31.670Z,100327.80
2022-10-04T08:40:34.075Z,100330.53
2022-10-04T08:41:36.486Z,100331.77
2022-10-04T08:42:40.542Z,100331.33
2022-10-04T08:43:42.899Z,100326.30
2022-10-04T08:53:14.913Z,100334.22
2022-10-04T08:54:17.396Z,100335.03
2022-10-04T08:55:19.853Z,100331.48
2022-10-04T08:56:22.289Z,100334.05
2022-10-04T08:57:26.341Z,100329.55
2022-10-04T08:58:28.612Z,100325.56
2022-10-04T08:59:31.014Z,100328.03
2022-10-04T09:00:33.470Z,100322.26
2022-10-04T09:01:37.563Z,100323.94
2022-10-04T09:02:41.495Z,100324.95
2022-10-04T09:03:45.360Z,100327.61
2022-10-04T09:04:47.764Z,100328.27
2022-10-04T09:05:51.804Z,100332.81
2022-10-04T09:06:54.136Z,100329.05
2022-10-04T09:07:56.526Z,100330.59
2022-10-04T09:08:58.985Z,100331.34
2022-10-04T09:10:03.015Z,100330.80
2022-10-04T09:11:05.396Z,100329.53
2022-10-04T09:12:07.860Z,100331.16
2022-10-04T09:13:11.961Z,100330.23
2022-10-04T09:14:15.965Z,100328.92
2022-10-04T09:15:18.258Z,100329.22
2022-10-04T09:16:20.724Z,100333.08
2022-10-04T09:17:24.718Z,100325.33
2022-10-04T09:18:28.611Z,100320.30
2022-10-04T09:19:31.007Z,100319.23
2022-10-04T09:20:40.881Z,100319.03
2022-10-04T09:21:35.975Z,100322.45
2022-10-04T09:22:38.401Z,100321.30
2022-10-04T09:23:40.902Z,100320.29
2022-10-04T09:33:13.674Z,100327.34
2022-10-04T09:34:16.125Z,100328.86
2022-10-04T09:35:20.194Z,100329.22
2022-10-04T09:36:22.480Z,100332.20
2022-10-04T09:37:24.901Z,100330.88
2022-10-04T09:38:28.989Z,100328.25
2022-10-04T09:39:32.837Z,100329.94
2022-10-04T09:40:36.758Z,100330.22
2022-10-04T09:41:40.618Z,100331.81
2022-10-04T09:42:42.954Z,100321.97
2022-10-04T09:43:46.961Z,100324.23
2022-10-04T09:44:51.075Z,100325.03
2022-10-04T09:45:53.426Z,100321.78
2022-10-04T09:46:56.758Z,100318.66
2022-10-04T09:47:58.261Z,100319.70
2022-10-04T09:49:00.707Z,100318.39
2022-10-04T09:50:04.764Z,100316.38
2022-10-04T09:51:08.685Z,100316.78
2022-10-04T09:52:12.049Z,100317.77
2022-10-04T09:53:16.071Z,100316.02
2022-10-04T09:54:20.047Z,100316.67
2022-10-04T09:55:22.279Z,100321.98
2022-10-04T09:56:24.668Z,100316.05
2022-10-04T09:57:27.083Z,100312.92
2022-10-04T09:58:29.547Z,100313.38
2022-10-04T09:59:31.947Z,100313.56
2022-10-04T10:00:34.429Z,100307.45
2022-10-04T10:01:37.952Z,100307.00
2022-10-04T10:02:40.316Z,100308.50
2022-10-04T10:03:44.253Z,100310.75
2022-10-04T10:04:46.634Z,100312.21
2022-10-04T10:05:49.086Z,100307.86
2022-10-04T10:06:51.510Z,100308.90
2022-10-04T10:07:55.584Z,100309.19
2022-10-04T10:08:57.840Z,100309.00
2022-10-04T10:10:00.269Z,100312.95
2022-10-04T10:11:04.320Z,100315.28
2022-10-04T10:12:06.679Z,100313.45
2022-10-04T10:21:38.890Z,100313.72
2022-10-04T10:22:41.320Z,100317.96
2022-10-04T10:23:45.410Z,100320.03
2022-10-04T10:24:49.357Z,100323.34
2022-10-04T10:25:51.647Z,100321.22
2022-10-04T10:26:54.211Z,100321.39
2022-10-04T10:27:56.729Z,100319.96
2022-10-04T10:29:00.702Z,100314.73
2022-10-04T10:30:03.049Z,100316.25
2022-10-04T10:31:05.549Z,100312.76
2022-10-04T10:32:07.976Z,100314.06
2022-10-04T10:33:12.050Z,100312.27
2022-10-04T10:34:15.932Z,100302.72
2022-10-04T10:35:18.302Z,100306.65
2022-10-04T10:36:20.702Z,100305.77
2022-10-04T10:37:23.186Z,100304.76
2022-10-04T10:38:25.555Z,100304.14
2022-10-04T10:39:28.020Z,100305.69
2022-10-04T10:40:30.464Z,100305.68
2022-10-04T10:41:32.924Z,100306.46
2022-10-04T10:42:35.622Z,100303.91
2022-10-04T10:43:38.316Z,100307.49
2022-10-04T10:44:46.161Z,100308.33
2022-10-04T10:45:48.238Z,100309.69
2022-10-04T10:46:52.342Z,100310.70
2022-10-04T10:47:54.684Z,100313.58
2022-10-04T10:48:57.066Z,100323.52
2022-10-04T10:49:59.481Z,100317.65
2022-10-04T10:51:01.922Z,100319.67
2022-10-04T10:52:04.386Z,100325.09
2022-10-04T10:53:06.794Z,100320.69
2022-10-04T10:54:09.277Z,100320.56
2022-10-04T10:55:11.633Z,100320.55
2022-10-04T10:56:14.167Z,100321.89
2022-10-04T10:57:16.727Z,100313.17
2022-10-04T10:58:19.231Z,100316.52
2022-10-04T10:59:21.526Z,100314.56
2022-10-04T11:00:23.921Z,100316.02
2022-10-04T11:01:26.506Z,100320.60
2022-10-04T11:02:48.001Z,100317.81
2022-10-04T11:03:32.162Z,100314.98
2022-10-04T11:04:35.241Z,100319.13
2022-10-04T11:05:37.534Z,100314.05
2022-10-04T11:06:41.651Z,100313.59
2022-10-04T11:07:43.972Z,100317.09
2022-10-04T11:08:46.375Z,100317.23
2022-10-04T11:09:48.752Z,100322.33
2022-10-04T11:10:51.987Z,100319.06
2022-10-04T11:11:55.252Z,100318.39
2022-10-04T11:12:59.254Z,100321.23
2022-10-04T11:14:03.162Z,100319.14
2022-10-04T11:15:05.456Z,100318.09
2022-10-04T11:16:08.112Z,100318.03
2022-10-04T11:17:10.387Z,100312.75
2022-10-04T11:18:12.759Z,100313.22
2022-10-04T11:19:15.149Z,100307.35
2022-10-04T11:20:18.627Z,100305.70
2022-10-04T11:21:22.611Z,100303.61
2022-10-04T11:22:26.515Z,100300.13
2022-10-04T11:23:28.968Z,100300.88
2022-10-04T11:24:32.785Z,100301.48
2022-10-04T11:25:35.167Z,100304.41
2022-10-04T11:26:37.563Z,100307.97
2022-10-04T11:27:40.072Z,100306.69
2022-10-04T11:28:42.550Z,100302.44
2022-10-04T11:29:44.846Z,100302.73
2022-10-04T11:30:47.381Z,100298.98
2022-10-04T11:31:49.799Z,100296.08
2022-10-04T11:32:52.350Z,100301.23
2022-10-04T11:33:54.753Z,100299.03
2022-10-04T11:34:58.821Z,100297.67
2022-10-04T11:36:01.197Z,100300.83
2022-10-04T11:37:03.650Z,100301.30
2022-10-04T11:38:11.707Z,100296.56
2022-10-04T11:39:13.828Z,100298.56
2022-10-04T11:40:16.240Z,100296.80
2022-10-04T11:41:18.829Z,100295.16
2022-10-04T11:42:22.791Z,100291.41
2022-10-04T11:43:25.071Z,100289.46
2022-10-04T11:44:29.142Z,100287.08
2022-10-04T11:45:33.139Z,100286.36
2022-10-04T11:46:35.527Z,100287.46
2022-10-04T11:47:37.862Z,100289.09
2022-10-04T11:48:40.411Z,100284.05
2022-10-04T11:49:42.804Z,100287.06
2022-10-04T11:50:45.326Z,100279.38
2022-10-04T11:51:47.786Z,100274.79
2022-10-04T11:52:51.755Z,100269.27
2022-10-04T11:53:54.095Z,100268.86
2022-10-04T11:54:56.609Z,100271.89
2022-10-04T11:56:00.692Z,100267.47
2022-10-04T11:57:03.088Z,100264.38
2022-10-04T11:58:08.518Z,100262.88
2022-10-04T11:59:07.791Z,100265.68
2022-10-04T12:00:11.871Z,100260.37
2022-10-04T12:01:15.883Z,100259.25
2022-10-04T12:02:18.249Z,100256.56
2022-10-04T12:03:20.752Z,100260.34
2022-10-04T12:04:24.780Z,100251.27
2022-10-04T12:05:28.752Z,100251.55
2022-10-04T12:06:30.971Z,100253.55
2022-10-04T12:07:33.491Z,100249.37
2022-10-04T12:08:35.919Z,100247.33
2022-10-04T12:09:38.314Z,100245.36
2022-10-04T12:10:40.818Z,100243.75
2022-10-04T12:11:43.112Z,100243.52
2022-10-04T12:12:47.185Z,100238.27
2022-10-04T12:13:49.719Z,100236.78
2022-10-04T12:14:53.707Z,100236.83
2022-10-04T12:15:56.062Z,100234.06
2022-10-04T12:16:58.468Z,100236.50
2022-10-04T12:18:00.858Z,100235.97
2022-10-04T12:19:05.020Z,100237.59
2022-10-04T12:20:11.339Z,100233.84
2022-10-04T12:21:09.782Z,100234.78
2022-10-04T12:22:12.199Z,100236.15
2022-10-04T12:23:14.627Z,100234.97
2022-10-04T12:24:17.153Z,100234.65
2022-10-04T12:25:19.614Z,100233.73
2022-10-04T12:26:21.913Z,100227.02
2022-10-04T12:27:24.422Z,100223.55
2022-10-04T12:28:26.818Z,100223.63
2022-10-04T12:29:29.402Z,100220.70
2022-10-04T12:30:31.861Z,100222.97
2022-10-04T12:31:35.879Z,100219.43
2022-10-04T12:32:38.224Z,100221.45
2022-10-04T12:33:40.620Z,100218.58
2022-10-04T12:34:43.003Z,100214.38
2022-10-04T12:35:48.970Z,100222.34
2022-10-04T12:36:51.167Z,100210.50
2022-10-04T12:37:53.570Z,100216.38
2022-10-04T12:38:55.989Z,100215.16
2022-10-04T12:39:58.429Z,100208.67
2022-10-04T12:41:02.334Z,100209.58
2022-10-04T12:42:04.754Z,100209.06
2022-10-04T12:43:07.181Z,100211.78
2022-10-04T12:44:09.613Z,100209.25
2022-10-04T12:45:12.055Z,100209.38
2022-10-04T12:46:14.535Z,100208.98
2022-10-04T12:47:16.836Z,100212.98
2022-10-04T12:48:19.264Z,100210.41
2022-10-04T12:49:21.690Z,100209.98
2022-10-04T12:50:24.094Z,100211.05
2022-10-04T12:51:26.375Z,100209.06
2022-10-04T12:52:28.979Z,100207.56
2022-10-04T12:53:31.354Z,100207.25
2022-10-04T12:54:33.863Z,100206.86
2022-10-04T12:55:37.898Z,100205.08
2022-10-04T12:56:40.115Z,100209.29
2022-10-04T12:57:42.520Z,100203.27
2022-10-04T12:58:44.985Z,100208.28
2022-10-04T12:59:47.516Z,100214.38
2022-10-04T13:00:50.022Z,100212.03
2022-10-04T13:01:52.379Z,100208.29
2022-10-04T13:02:54.825Z,100209.80
2022-10-04T13:03:57.325Z,100206.09
2022-10-04T13:04:59.664Z,100202.52
2022-10-04T13:06:02.029Z,100199.59
2022-10-04T13:07:06.150Z,100197.55
2022-10-04T13:08:08.520Z,100198.62
2022-10-04T13:09:11.052Z,100195.91
2022-10-04T13:10:30.163Z,100200.61
2022-10-04T13:11:17.334Z,100199.40
2022-10-04T13:12:21.409Z,100202.00
2022-10-04T13:13:23.795Z,100199.95
2022-10-04T13:14:26.257Z,100198.95
2022-10-04T13:15:28.814Z,100201.91
2022-10-04T13:17:36.038Z,100200.94
2022-10-04T13:18:36.168Z,100198.05
2022-10-04T13:19:38.613Z,100195.30
2022-10-04T13:20:41.104Z,100195.97
2022-10-04T13:21:43.699Z,100191.47
2022-10-04T13:23:02.802Z,100198.14
2022-10-04T13:23:49.803Z,100192.91
2022-10-04T13:24:52.308Z,100192.11
2022-10-04T13:25:54.786Z,100187.45
2022-10-04T13:26:57.250Z,100189.17
2022-10-04T13:27:59.750Z,100190.09
2022-10-04T13:29:02.243Z,100192.88
2022-10-04T13:30:04.766Z,100193.32
2022-10-04T13:31:08.851Z,100189.36
2022-10-04T13:32:11.231Z,100187.08
2022-10-04T13:33:13.784Z,100187.18
2022-10-04T13:34:17.008Z,100186.48
2022-10-04T13:35:20.829Z,100189.66
2022-10-04T13:36:21.840Z,100190.72
2022-10-04T13:37:24.330Z,100186.05
2022-10-04T13:38:26.816Z,100184.44
2022-10-04T13:39:29.178Z,100182.80
2022-10-04T13:40:31.619Z,100182.02
2022-10-04T13:41:34.069Z,100177.94
2022-10-04T13:42:36.554Z,100182.53
2022-10-04T13:43:39.051Z,100176.20
2022-10-04T13:44:41.550Z,100178.80
2022-10-04T13:45:44.002Z,100180.42
2022-10-04T13:46:46.454Z,100181.69
2022-10-04T13:47:50.676Z,100181.89
2022-10-04T13:48:55.809Z,100178.94
2022-10-04T13:49:59.631Z,100174.11
2022-10-04T13:51:01.902Z,100169.28
2022-10-04T13:52:04.394Z,100165.17
2022-10-04T13:53:06.849Z,100168.23
2022-10-04T13:54:09.305Z,100167.02
2022-10-04T13:55:11.745Z,100162.11
2022-10-04T13:56:14.473Z,100161.59
2022-10-04T13:57:16.859Z,100160.16
2022-10-04T13:58:20.971Z,100159.65
2022-10-04T13:59:23.342Z,100164.38
2022-10-04T14:00:25.752Z,100165.03
2022-10-04T14:01:28.271Z,100159.77
2022-10-04T14:02:30.694Z,100163.38
2022-10-04T14:03:33.189Z,100162.17
2022-10-04T14:04:35.623Z,100170.17
2022-10-04T14:05:38.144Z,100169.25
2022-10-04T14:06:40.704Z,100169.69
2022-10-04T14:07:43.168Z,100173.59
2022-10-04T14:08:45.633Z,100169.14
2022-10-04T14:09:48.088Z,100170.41
2022-10-04T14:10:50.586Z,100174.07
2022-10-04T14:11:53.117Z,100173.91
2022-10-04T14:12:57.092Z,100172.68
2022-10-04T14:13:59.423Z,100174.16
2022-10-04T14:15:01.823Z,100172.05
2022-10-04T14:16:04.352Z,100170.22
2022-10-04T14:17:06.732Z,100172.59
2022-10-04T14:18:09.197Z,100168.70
2022-10-04T14:19:11.708Z,100168.20
2022-10-04T14:20:14.221Z,100167.22
2022-10-04T14:21:19.328Z,100166.58
2022-10-04T14:22:19.209Z,100166.33
2022-10-04T14:23:23.291Z,100161.05
2022-10-04T14:24:25.605Z,100157.40
2022-10-04T14:25:28.112Z,100166.96
2022-10-04T14:26:32.114Z,100162.22
2022-10-04T14:27:34.496Z,100162.03
2022-10-04T14:28:38.753Z,100163.81
2022-10-04T14:29:40.882Z,100157.86
2022-10-04T14:30:43.326Z,100156.20
2022-10-04T14:31:45.956Z,100162.94
2022-10-04T14:32:49.780Z,100159.08
2022-10-04T14:33:52.127Z,100155.34
2022-10-04T14:34:56.254Z,100154.95
2022-10-04T14:35:58.584Z,100151.73
2022-10-04T14:37:02.616Z,100147.47
2022-10-04T14:38:04.999Z,100150.47
2022-10-04T14:39:07.406Z,100149.09
2022-10-04T14:40:09.936Z,100146.20
2022-10-04T14:41:12.377Z,100142.42
2022-10-04T14:42:14.844Z,100140.59
2022-10-04T14:43:18.982Z,100138.17
2022-10-04T14:44:21.350Z,100133.84
2022-10-04T14:45:23.890Z,100135.36
2022-10-04T14:46:27.840Z,100134.51
2022-10-04T14:47:31.901Z,100132.38
2022-10-04T14:48:34.230Z,100125.28
2022-10-04T14:49:39.580Z,100130.10
2022-10-04T14:50:43.505Z,100124.98
2022-10-04T14:51:46.063Z,100121.82
2022-10-04T14:52:48.305Z,100122.91
2022-10-04T14:53:50.765Z,100125.63
2022-10-04T14:54:53.339Z,100122.11
2022-10-04T14:55:55.854Z,100121.85
2022-10-04T14:56:58.408Z,100120.80
2022-10-04T14:58:00.883Z,100122.33
2022-10-04T14:59:03.376Z,100122.69
2022-10-04T15:00:05.947Z,100123.27
2022-10-04T15:01:08.467Z,100122.80
2022-10-04T15:02:10.864Z,100118.01
2022-10-04T15:03:13.394Z,100114.77
2022-10-04T15:04:15.975Z,100116.23
2022-10-04T15:05:18.396Z,100114.27
2022-10-04T15:06:20.885Z,100115.06
2022-10-04T15:07:24.494Z,100116.07
2022-10-04T15:08:26.912Z,100117.14
2022-10-04T15:09:29.401Z,100123.75
2022-10-04T15:10:35.674Z,100122.64
2022-10-04T15:11:34.349Z,100124.70
2022-10-04T15:13:05.653Z,100121.22
2022-10-04T15:13:39.346Z,100116.97
2022-10-04T15:14:41.869Z,100118.83
2022-10-04T15:15:44.445Z,100117.22
2022-10-04T15:16:47.390Z,100116.83
2022-10-04T15:17:49.467Z,100117.66
2022-10-04T15:18:52.004Z,100114.64
2022-10-04T15:19:56.099Z,100119.19
2022-10-04T15:20:58.554Z,100109.73
2022-10-04T15:22:01.060Z,100113.05
2022-10-04T15:23:05.140Z,100108.89
2022-10-04T15:24:07.521Z,100109.80
2022-10-04T15:25:11.624Z,100108.34
2022-10-04T15:26:14.019Z,100112.95
2022-10-04T15:27:16.539Z,100111.18
2022-10-04T15:28:19.026Z,100113.75
2022-10-04T15:29:21.449Z,100112.44
2022-10-04T15:30:25.638Z,100108.27
2022-10-04T15:31:28.082Z,100112.78
2022-10-04T15:32:34.682Z,100107.98
2022-10-04T15:33:32.996Z,100103.41
2022-10-04T15:34:35.441Z,100109.77
2022-10-04T15:35:39.584Z,100110.10
2022-10-04T15:36:43.853Z,100109.96
2022-10-04T15:37:46.014Z,100109.17
2022-10-04T15:38:48.456Z,100104.49
2022-10-04T15:39:53.502Z,100105.53
2022-10-04T15:40:53.401Z,100100.58
2022-10-04T15:41:55.849Z,100098.47
2022-10-04T15:42:59.920Z,100101.63
2022-10-04T15:44:03.853Z,100098.66
2022-10-04T15:45:07.810Z,100096.41
2022-10-04T15:46:10.178Z,100098.98
2022-10-04T15:47:14.217Z,100099.84
2022-10-04T15:48:17.596Z,100099.99
2022-10-04T15:49:21.616Z,100100.08
2022-10-04T15:50:24.050Z,100101.44
2022-10-04T15:51:28.130Z,100096.77
2022-10-04T15:52:30.533Z,100092.78
2022-10-04T15:53:33.014Z,100087.54
2022-10-04T15:54:35.575Z,100091.14
2022-10-04T15:55:38.024Z,100089.70
2022-10-04T15:56:40.595Z,100092.51
2022-10-04T15:57:43.123Z,100096.94
2022-10-04T15:58:48.319Z,100100.61
2022-10-04T15:59:48.081Z,100103.66
2022-10-04T16:00:50.554Z,100107.16
2022-10-04T16:01:53.100Z,100106.64
2022-10-04T16:02:57.143Z,100106.53
2022-10-04T16:03:59.505Z,100104.50
2022-10-04T16:05:01.982Z,100100.20
2022-10-04T16:06:04.482Z,100096.81
2022-10-04T16:07:06.976Z,100093.20
2022-10-04T16:08:09.481Z,100087.36
2022-10-04T16:09:11.774Z,100085.59
2022-10-04T16:10:14.238Z,100085.20
2022-10-04T16:11:18.370Z,100088.71
2022-10-04T16:12:22.227Z,100089.64
2022-10-04T16:13:24.564Z,100082.06
2022-10-04T16:14:28.696Z,100084.81
2022-10-04T16:15:30.949Z,100080.95
2022-10-04T16:16:33.508Z,100082.45
2022-10-04T16:17:37.773Z,100081.55
2022-10-04T16:18:40.100Z,100078.91
2022-10-04T16:19:42.541Z,100076.40
2022-10-04T16:20:46.610Z,100073.47
2022-10-04T16:21:48.718Z,100067.56
2022-10-04T16:22:51.246Z,100063.25
2022-10-04T16:23:55.222Z,100059.86
2022-10-04T16:24:57.766Z,100056.41
2022-10-04T16:26:00.125Z,100056.99
2022-10-04T16:27:02.672Z,100058.27
2022-10-04T16:28:05.954Z,100058.88
2022-10-04T16:29:07.540Z,100062.44
2022-10-04T16:30:28.059Z,100061.20
2022-10-04T16:31:20.053Z,100061.96
2022-10-04T16:32:19.892Z,100068.77
2022-10-04T16:33:22.341Z,100062.70
2022-10-04T16:34:26.373Z,100075.83
2022-10-04T16:35:28.696Z,100075.93
2022-10-04T16:36:32.745Z,100076.45
2022-10-04T16:37:35.086Z,100073.78
2022-10-04T16:38:37.631Z,100074.72
2022-10-04T16:39:41.489Z,100076.09
2022-10-04T16:40:43.873Z,100066.78
2022-10-04T16:41:47.915Z,100067.52
2022-10-04T16:42:50.229Z,100068.64
2022-10-04T16:43:54.293Z,100064.05
2022-10-04T16:44:56.597Z,100066.13
2022-10-04T16:45:59.149Z,100062.63
2022-10-04T16:47:01.413Z,100066.78
2022-10-04T16:48:03.800Z,100066.08
2022-10-04T16:49:07.940Z,100065.28
2022-10-04T16:50:12.073Z,100068.13
2022-10-04T16:51:16.013Z,100068.17
2022-10-04T16:52:18.371Z,100069.95
2022-10-04T16:53:20.811Z,100072.83
2022-10-04T16:54:23.255Z,100078.97
2022-10-04T16:55:27.344Z,100082.05
2022-10-04T17:04:57.277Z,100088.79
2022-10-04T17:05:59.815Z,100087.57
2022-10-04T17:15:32.780Z,100102.28
2022-10-04T17:25:07.743Z,100104.78
2022-10-04T17:34:39.920Z,100103.45
2022-10-04T17:44:13.758Z,100117.59
2022-10-04T17:53:47.773Z,100115.00
2022-10-04T18:03:21.921Z,100117.30
2022-10-04T18:12:57.390Z,100119.22
2022-10-04T18:22:29.743Z,100107.66
2022-10-04T18:32:03.994Z,100105.21
2022-10-04T18:41:38.242Z,100111.67
2022-10-04T18:51:13.702Z,100124.05
2022-10-04T19:00:47.311Z,100137.05
2022-10-04T19:10:21.011Z,100145.02
2022-10-04T19:19:53.495Z,100141.81
2022-10-04T19:29:29.197Z,100147.82
2022-10-04T19:39:02.665Z,100150.77
2022-10-04T19:48:36.441Z,100154.77
2022-10-04T19:58:08.936Z,100155.55
2022-10-04T20:07:42.777Z,100155.69
2022-10-04T20:17:16.724Z,100167.20
2022-10-04T20:26:53.543Z,100175.68
2022-10-04T20:36:24.587Z,100174.52
2022-10-04T20:45:59.922Z,100177.92
2022-10-04T20:55:33.287Z,100171.22
2022-10-04T21:05:06.780Z,100170.89
2022-10-04T21:06:09.182Z,100170.27
2022-10-04T21:15:42.608Z,100158.59
2022-10-04T21:25:16.965Z,100145.59
2022-10-04T21:34:53.755Z,100135.82
2022-10-04T21:44:25.365Z,100146.95
2022-10-04T21:54:00.934Z,100139.38
2022-10-04T22:03:33.067Z,100135.93
2022-10-04T22:13:07.142Z,100133.59
2022-10-04T22:22:40.950Z,100136.14
2022-10-04T22:32:17.634Z,100125.22
2022-10-04T22:41:49.351Z,100103.39
2022-10-04T22:51:22.926Z,100118.17
2022-10-04T23:00:57.093Z,100122.82
2022-10-04T23:10:31.344Z,100125.20
2022-10-04T23:20:05.010Z,100133.36
2022-10-04T23:29:36.175Z,100134.80
2022-10-04T23:39:10.762Z,100148.78
2022-10-04T23:48:45.460Z,100145.70
2022-10-04T23:58:19.124Z,100139.04
